createdAt,value
2018-09-11T00:00:16.103Z,81.99
2018-09-11T00:01:16.077Z,80.88
2018-09-11T00:02:16.082Z,82.30
2018-09-11T00:03:16.072Z,81.69
2018-09-11T00:04:16.044Z,80.68
2018-09-11T00:05:16.032Z,80.27
2018-09-11T00:06:16.060Z,80.88
2018-09-11T00:07:16.021Z,80.88
2018-09-11T00:08:15.999Z,81.79
2018-09-11T00:09:23.563Z,81.69
2018-09-11T00:10:15.979Z,80.88
2018-09-11T00:11:15.994Z,80.58
2018-09-11T00:12:15.972Z,81.79
2018-09-11T00:13:16.027Z,81.52
2018-09-11T00:14:15.938Z,81.63
2018-09-11T00:15:15.922Z,81.52
2018-09-11T00:16:15.982Z,82.20
2018-09-11T00:17:15.941Z,81.02
2018-09-11T00:18:15.906Z,81.32
2018-09-11T00:19:15.908Z,81.69
2018-09-11T00:20:15.864Z,81.39
2018-09-11T00:21:15.860Z,81.69
2018-09-11T00:22:15.872Z,81.63
2018-09-11T00:23:15.834Z,81.09
2018-09-11T00:24:15.931Z,81.32
2018-09-11T00:25:15.849Z,81.49
2018-09-11T00:26:15.913Z,80.88
2018-09-11T00:27:15.807Z,80.72
2018-09-11T00:28:23.716Z,81.43
2018-09-11T00:29:15.797Z,81.43
2018-09-11T00:30:15.757Z,81.73
2018-09-11T00:31:15.773Z,81.09
2018-09-11T00:32:15.734Z,82.20
2018-09-11T00:33:15.725Z,81.43
2018-09-11T00:34:15.743Z,81.12
2018-09-11T00:35:15.726Z,81.83
2018-09-11T00:36:15.779Z,81.02
2018-09-11T00:37:15.716Z,81.83
2018-09-11T00:38:23.322Z,80.72
2018-09-11T00:39:15.677Z,81.12
2018-09-11T00:40:15.643Z,81.63
2018-09-11T00:41:15.647Z,81.23
2018-09-11T00:42:15.624Z,81.59
2018-09-11T00:43:15.630Z,81.02
2018-09-11T00:44:15.625Z,81.79
2018-09-11T00:45:15.688Z,81.43
2018-09-11T00:46:15.633Z,81.59
2018-09-11T00:47:15.614Z,81.73
2018-09-11T00:48:24.933Z,82.24
2018-09-11T00:49:15.556Z,81.73
2018-09-11T00:50:15.609Z,81.83
2018-09-11T00:51:15.563Z,82.10
2018-09-11T00:52:15.546Z,81.43
2018-09-11T00:53:15.498Z,81.43
2018-09-11T00:54:15.572Z,81.52
2018-09-11T00:55:15.475Z,81.32
2018-09-11T00:56:15.465Z,82.14
2018-09-11T00:57:15.475Z,81.23
2018-09-11T00:58:24.406Z,81.43
2018-09-11T00:59:15.451Z,82.34
2018-09-11T01:00:15.493Z,81.99
2018-09-11T01:01:15.433Z,82.24
2018-09-11T01:02:15.433Z,81.52
2018-09-11T01:03:15.399Z,81.43
2018-09-11T01:04:15.381Z,81.69
2018-09-11T01:05:15.412Z,82.20
2018-09-11T01:06:15.358Z,81.23
2018-09-11T01:07:15.341Z,82.03
2018-09-11T01:08:15.346Z,81.83
2018-09-11T01:09:15.323Z,82.03
2018-09-11T01:10:15.415Z,81.73
2018-09-11T01:11:15.331Z,82.24
2018-09-11T01:12:15.288Z,82.24
2018-09-11T01:13:15.277Z,82.14
2018-09-11T01:14:15.265Z,81.83
2018-09-11T01:15:15.317Z,82.14
2018-09-11T01:16:15.242Z,82.14
2018-09-11T01:17:15.323Z,82.54
2018-09-11T01:18:15.224Z,82.24
2018-09-11T01:19:15.217Z,82.68
2018-09-11T01:20:15.199Z,82.89
2018-09-11T01:21:15.190Z,82.64
2018-09-11T01:22:15.177Z,82.68
2018-09-11T01:23:15.188Z,82.78
2018-09-11T01:24:15.201Z,82.07
2018-09-11T01:25:15.156Z,81.67
2018-09-11T01:26:15.132Z,82.14
2018-09-11T01:27:23.289Z,82.58
2018-09-11T01:28:15.142Z,82.44
2018-09-11T01:29:15.170Z,82.28
2018-09-11T01:30:15.161Z,82.78
2018-09-11T01:31:15.154Z,82.48
2018-09-11T01:32:15.083Z,82.48
2018-09-11T01:33:15.054Z,82.17
2018-09-11T01:34:15.067Z,82.58
2018-09-11T01:35:15.033Z,82.78
2018-09-11T01:36:15.073Z,82.48
2018-09-11T01:37:25.396Z,82.38
2018-09-11T01:38:15.052Z,82.48
2018-09-11T01:39:15.014Z,81.67
2018-09-11T01:40:14.979Z,81.67
2018-09-11T01:41:15.024Z,82.48
2018-09-11T01:42:14.952Z,82.17
2018-09-11T01:43:15.063Z,82.48
2018-09-11T01:44:15.006Z,82.17
2018-09-11T01:45:14.939Z,82.48
2018-09-11T01:46:14.910Z,82.17
2018-09-11T01:47:14.930Z,82.38
2018-09-11T01:48:14.892Z,82.48
2018-09-11T01:49:14.916Z,82.48
2018-09-11T01:50:14.888Z,82.28
2018-09-11T01:51:14.882Z,82.38
2018-09-11T01:52:14.846Z,82.17
2018-09-11T01:53:14.831Z,82.17
2018-09-11T01:54:14.822Z,82.07
2018-09-11T01:55:14.831Z,82.28
2018-09-11T01:56:14.816Z,82.38
2018-09-11T01:57:24.002Z,82.68
2018-09-11T01:58:14.812Z,82.52
2018-09-11T01:59:14.767Z,82.62
2018-09-11T02:00:14.807Z,82.68
2018-09-11T02:01:14.754Z,82.48
2018-09-11T02:02:14.774Z,83.03
2018-09-11T02:03:14.774Z,82.82
2018-09-11T02:04:14.711Z,82.68
2018-09-11T02:05:14.727Z,82.68
2018-09-11T02:06:14.755Z,82.68
2018-09-11T02:07:14.679Z,82.98
2018-09-11T02:08:14.675Z,82.92
2018-09-11T02:09:14.686Z,82.48
2018-09-11T02:10:14.797Z,83.23
2018-09-11T02:11:14.633Z,82.92
2018-09-11T02:12:14.680Z,83.23
2018-09-11T02:13:14.624Z,82.92
2018-09-11T02:14:14.601Z,83.73
2018-09-11T02:15:14.598Z,83.53
2018-09-11T02:16:22.598Z,83.83
2018-09-11T02:17:14.589Z,83.63
2018-09-11T02:18:14.611Z,83.12
2018-09-11T02:19:14.622Z,83.63
2018-09-11T02:20:14.536Z,83.23
2018-09-11T02:21:14.523Z,83.53
2018-09-11T02:22:14.511Z,83.63
2018-09-11T02:23:14.540Z,83.63
2018-09-11T02:24:14.511Z,83.53
2018-09-11T02:25:14.481Z,83.63
2018-09-11T02:26:22.590Z,83.53
2018-09-11T02:27:14.539Z,83.37
2018-09-11T02:28:14.500Z,83.83
2018-09-11T02:29:14.462Z,83.43
2018-09-11T02:30:14.490Z,83.23
2018-09-11T02:31:14.417Z,83.43
2018-09-11T02:32:14.400Z,84.08
2018-09-11T02:33:14.397Z,83.98
2018-09-11T02:34:14.378Z,83.37
2018-09-11T02:35:14.367Z,84.04
2018-09-11T02:36:14.390Z,83.98
2018-09-11T02:37:14.346Z,84.18
2018-09-11T02:38:14.332Z,83.98
2018-09-11T02:39:14.320Z,84.18
2018-09-11T02:40:14.312Z,84.08
2018-09-11T02:41:14.314Z,84.18
2018-09-11T02:42:14.309Z,84.28
2018-09-11T02:43:14.277Z,84.18
2018-09-11T02:44:14.268Z,84.18
2018-09-11T02:45:14.272Z,84.18
2018-09-11T02:46:21.929Z,84.08
2018-09-11T02:47:14.284Z,84.08
2018-09-11T02:48:14.331Z,84.08
2018-09-11T02:49:14.233Z,84.38
2018-09-11T02:50:14.209Z,84.22
2018-09-11T02:51:14.255Z,84.32
2018-09-11T02:52:14.179Z,84.69
2018-09-11T02:53:14.187Z,84.32
2018-09-11T02:54:14.189Z,84.28
2018-09-11T02:55:14.211Z,84.63
2018-09-11T02:56:14.135Z,84.18
2018-09-11T02:57:14.167Z,84.72
2018-09-11T02:58:14.113Z,84.63
2018-09-11T02:59:14.103Z,84.63
2018-09-11T03:00:14.101Z,84.52
2018-09-11T03:01:14.081Z,84.42
2018-09-11T03:02:14.080Z,84.69
2018-09-11T03:03:14.092Z,84.38
2018-09-11T03:04:14.048Z,84.18
2018-09-11T03:05:14.037Z,84.08
2018-09-11T03:06:14.055Z,84.28
2018-09-11T03:07:14.050Z,84.08
2018-09-11T03:08:14.000Z,83.98
2018-09-11T03:09:14.034Z,84.28
2018-09-11T03:10:13.979Z,84.18
2018-09-11T03:11:13.970Z,83.98
2018-09-11T03:12:14.012Z,84.12
2018-09-11T03:13:13.946Z,84.01
2018-09-11T03:14:13.934Z,84.22
2018-09-11T03:15:21.895Z,83.91
2018-09-11T03:16:13.953Z,83.98
2018-09-11T03:17:13.910Z,83.98
2018-09-11T03:18:13.949Z,84.18
2018-09-11T03:19:13.948Z,84.18
2018-09-11T03:20:13.903Z,84.12
2018-09-11T03:21:14.005Z,83.61
2018-09-11T03:22:13.847Z,83.61
2018-09-11T03:23:13.858Z,83.26
2018-09-11T03:24:13.862Z,83.57
2018-09-11T03:25:13.825Z,83.98
2018-09-11T03:26:13.806Z,83.17
2018-09-11T03:27:13.796Z,83.26
2018-09-11T03:28:13.796Z,83.26
2018-09-11T03:29:13.768Z,83.98
2018-09-11T03:30:13.806Z,83.67
2018-09-11T03:31:13.748Z,83.67
2018-09-11T03:32:13.737Z,83.57
2018-09-11T03:33:13.726Z,83.57
2018-09-11T03:34:13.714Z,82.86
2018-09-11T03:35:13.702Z,82.86
2018-09-11T03:36:13.710Z,83.26
2018-09-11T03:37:13.686Z,82.76
2018-09-11T03:38:13.667Z,82.45
2018-09-11T03:39:13.710Z,82.76
2018-09-11T03:40:13.723Z,82.76
2018-09-11T03:41:13.637Z,82.76
2018-09-11T03:42:13.642Z,82.76
2018-09-11T03:43:13.697Z,82.66
2018-09-11T03:44:13.631Z,82.62
2018-09-11T03:45:21.578Z,82.15
2018-09-11T03:46:13.616Z,82.25
2018-09-11T03:47:13.576Z,82.15
2018-09-11T03:48:13.643Z,82.31
2018-09-11T03:49:13.560Z,82.05
2018-09-11T03:50:13.539Z,82.35
2018-09-11T03:51:13.537Z,81.74
2018-09-11T03:52:13.515Z,82.11
2018-09-11T03:53:13.596Z,81.95
2018-09-11T03:54:13.547Z,82.35
2018-09-11T03:55:21.466Z,82.66
2018-09-11T03:56:13.476Z,82.05
2018-09-11T03:57:13.509Z,82.35
2018-09-11T03:58:13.466Z,82.25
2018-09-11T03:59:13.514Z,82.25
2018-09-11T04:00:13.435Z,82.45
2018-09-11T04:01:13.425Z,82.25
2018-09-11T04:02:13.404Z,82.35
2018-09-11T04:03:13.410Z,82.21
2018-09-11T04:04:13.422Z,82.15
2018-09-11T04:05:13.371Z,82.25
2018-09-11T04:06:13.359Z,82.35
2018-09-11T04:07:13.400Z,81.95
2018-09-11T04:08:13.338Z,82.15
2018-09-11T04:09:13.384Z,82.35
2018-09-11T04:10:13.320Z,82.35
2018-09-11T04:11:13.322Z,82.66
2018-09-11T04:12:13.295Z,82.35
2018-09-11T04:13:13.282Z,82.66
2018-09-11T04:14:22.668Z,82.39
2018-09-11T04:15:13.314Z,82.80
2018-09-11T04:16:13.251Z,82.50
2018-09-11T04:17:13.241Z,82.90
2018-09-11T04:18:13.332Z,82.76
2018-09-11T04:19:13.246Z,82.70
2018-09-11T04:20:13.236Z,83.31
2018-09-11T04:21:13.209Z,82.80
2018-09-11T04:22:13.189Z,82.90
2018-09-11T04:23:13.171Z,82.86
2018-09-11T04:24:13.176Z,83.20
2018-09-11T04:25:13.169Z,82.56
2018-09-11T04:26:13.156Z,82.80
2018-09-11T04:27:13.133Z,82.50
2018-09-11T04:28:13.150Z,82.90
2018-09-11T04:29:13.106Z,83.00
2018-09-11T04:30:13.097Z,83.40
2018-09-11T04:31:13.120Z,83.61
2018-09-11T04:32:13.094Z,82.80
2018-09-11T04:33:13.092Z,83.10
2018-09-11T04:34:13.051Z,83.40
2018-09-11T04:35:13.043Z,83.40
2018-09-11T04:36:13.084Z,83.10
2018-09-11T04:37:13.017Z,83.61
2018-09-11T04:38:13.013Z,83.61
2018-09-11T04:39:12.994Z,83.31
2018-09-11T04:40:13.033Z,83.81
2018-09-11T04:41:12.973Z,83.10
2018-09-11T04:42:12.987Z,82.59
2018-09-11T04:43:20.865Z,82.70
2018-09-11T04:44:12.994Z,82.96
2018-09-11T04:45:13.051Z,82.70
2018-09-11T04:46:12.926Z,82.70
2018-09-11T04:47:12.925Z,82.90
2018-09-11T04:48:12.926Z,82.90
2018-09-11T04:49:12.915Z,82.96
2018-09-11T04:50:12.962Z,83.31
2018-09-11T04:51:12.901Z,83.00
2018-09-11T04:52:12.888Z,83.06
2018-09-11T04:53:12.874Z,82.96
2018-09-11T04:54:12.866Z,83.61
2018-09-11T04:55:12.818Z,83.40
2018-09-11T04:56:12.888Z,83.81
2018-09-11T04:57:12.796Z,83.81
2018-09-11T04:58:12.785Z,83.81
2018-09-11T04:59:12.795Z,83.81
2018-09-11T05:00:12.784Z,83.71
2018-09-11T05:01:12.767Z,83.81
2018-09-11T05:02:12.744Z,83.91
2018-09-11T05:03:20.773Z,83.61
2018-09-11T05:04:12.721Z,83.67
2018-09-11T05:05:12.752Z,83.51
2018-09-11T05:06:12.721Z,83.61
2018-09-11T05:07:12.687Z,83.61
2018-09-11T05:08:12.734Z,83.40
2018-09-11T05:09:12.664Z,83.40
2018-09-11T05:10:12.656Z,83.71
2018-09-11T05:11:12.646Z,83.71
2018-09-11T05:12:12.650Z,84.12
2018-09-11T05:13:20.651Z,83.31
2018-09-11T05:14:12.617Z,83.51
2018-09-11T05:15:12.603Z,84.01
2018-09-11T05:16:12.606Z,83.40
2018-09-11T05:17:12.584Z,83.81
2018-09-11T05:18:12.653Z,83.61
2018-09-11T05:19:12.711Z,83.61
2018-09-11T05:20:12.690Z,83.98
2018-09-11T05:21:12.536Z,84.01
2018-09-11T05:22:12.529Z,84.01
2018-09-11T05:23:12.544Z,83.91
2018-09-11T05:24:12.499Z,83.57
2018-09-11T05:25:12.578Z,84.01
2018-09-11T05:26:12.484Z,84.12
2018-09-11T05:27:12.510Z,83.91
2018-09-11T05:28:12.467Z,84.22
2018-09-11T05:29:12.471Z,83.98
2018-09-11T05:30:12.435Z,83.67
2018-09-11T05:31:12.424Z,83.98
2018-09-11T05:32:12.412Z,83.87
2018-09-11T05:33:20.478Z,83.98
2018-09-11T05:34:12.496Z,83.87
2018-09-11T05:35:12.443Z,83.98
2018-09-11T05:36:12.396Z,83.98
2018-09-11T05:37:12.367Z,83.98
2018-09-11T05:38:12.344Z,84.08
2018-09-11T05:39:12.452Z,83.87
2018-09-11T05:40:12.475Z,83.67
2018-09-11T05:41:12.333Z,83.47
2018-09-11T05:42:12.321Z,83.47
2018-09-11T05:43:12.292Z,83.37
2018-09-11T05:44:12.278Z,83.26
2018-09-11T05:45:12.279Z,83.98
2018-09-11T05:46:12.261Z,83.67
2018-09-11T05:47:12.392Z,83.57
2018-09-11T05:48:12.234Z,83.33
2018-09-11T05:49:12.223Z,83.43
2018-09-11T05:50:12.212Z,83.67
2018-09-11T05:51:12.219Z,83.77
2018-09-11T05:52:22.247Z,83.23
2018-09-11T05:53:12.246Z,83.43
2018-09-11T05:54:12.253Z,83.67
2018-09-11T05:55:12.207Z,83.73
2018-09-11T05:56:12.189Z,83.73
2018-09-11T05:57:12.160Z,83.63
2018-09-11T05:58:12.237Z,83.63
2018-09-11T05:59:12.139Z,83.63
2018-09-11T06:00:12.112Z,83.63
2018-09-11T06:01:12.096Z,83.73
2018-09-11T06:02:19.999Z,83.43
2018-09-11T06:03:12.162Z,83.63
2018-09-11T06:04:12.102Z,83.73
2018-09-11T06:05:12.052Z,83.53
2018-09-11T06:06:12.041Z,83.03
2018-09-11T06:07:12.134Z,83.43
2018-09-11T06:08:12.065Z,82.98
2018-09-11T06:09:12.035Z,82.48
2018-09-11T06:10:12.014Z,83.29
2018-09-11T06:11:11.982Z,83.49
2018-09-11T06:12:19.952Z,82.98
2018-09-11T06:13:11.974Z,83.49
2018-09-11T06:14:11.950Z,82.58
2018-09-11T06:15:11.972Z,83.49
2018-09-11T06:16:12.005Z,82.98
2018-09-11T06:17:11.925Z,82.98
2018-09-11T06:18:11.910Z,82.38
2018-09-11T06:19:11.921Z,82.98
2018-09-11T06:20:11.881Z,82.48
2018-09-11T06:21:11.915Z,82.98
2018-09-11T06:22:21.349Z,82.89
2018-09-11T06:23:11.861Z,82.98
2018-09-11T06:24:11.840Z,82.17
2018-09-11T06:25:11.840Z,82.64
2018-09-11T06:26:11.833Z,82.48
2018-09-11T06:27:11.993Z,82.98
2018-09-11T06:28:11.827Z,83.04
2018-09-11T06:29:11.897Z,82.48
2018-09-11T06:30:11.801Z,82.64
2018-09-11T06:31:11.763Z,83.25
2018-09-11T06:32:11.761Z,82.44
2018-09-11T06:33:11.740Z,83.35
2018-09-11T06:34:11.726Z,82.44
2018-09-11T06:35:11.746Z,82.34
2018-09-11T06:36:11.726Z,82.34
2018-09-11T06:37:11.718Z,82.95
2018-09-11T06:38:11.684Z,82.34
2018-09-11T06:39:11.674Z,82.34
2018-09-11T06:40:11.685Z,82.50
2018-09-11T06:41:11.712Z,82.34
2018-09-11T06:42:11.754Z,82.54
2018-09-11T06:43:11.629Z,82.20
2018-09-11T06:44:11.633Z,81.83
2018-09-11T06:45:11.623Z,81.73
2018-09-11T06:46:11.595Z,81.59
2018-09-11T06:47:11.589Z,82.40
2018-09-11T06:48:11.599Z,81.90
2018-09-11T06:49:11.563Z,81.99
2018-09-11T06:50:11.572Z,81.69
2018-09-11T06:51:11.555Z,81.69
2018-09-11T06:52:20.651Z,81.99
2018-09-11T06:53:11.701Z,82.50
2018-09-11T06:54:11.514Z,81.90
2018-09-11T06:55:11.559Z,82.10
2018-09-11T06:56:11.723Z,82.30
2018-09-11T06:57:11.757Z,82.06
2018-09-11T06:58:11.513Z,81.65
2018-09-11T06:59:11.450Z,82.16
2018-09-11T07:00:11.479Z,81.96
2018-09-11T07:01:11.428Z,81.45
2018-09-11T07:02:19.048Z,81.55
2018-09-11T07:03:11.553Z,82.26
2018-09-11T07:04:11.402Z,81.96
2018-09-11T07:05:11.441Z,81.35
2018-09-11T07:06:11.375Z,81.55
2018-09-11T07:07:11.459Z,81.55
2018-09-11T07:08:11.541Z,81.62
2018-09-11T07:09:11.368Z,81.62
2018-09-11T07:10:11.334Z,82.12
2018-09-11T07:11:11.435Z,81.71
2018-09-11T07:12:11.452Z,81.41
2018-09-11T07:13:11.406Z,81.21
2018-09-11T07:14:11.595Z,81.57
2018-09-11T07:15:11.318Z,80.71
2018-09-11T07:16:11.262Z,81.01
2018-09-11T07:17:11.363Z,80.71
2018-09-11T07:18:11.267Z,82.12
2018-09-11T07:19:11.227Z,81.71
2018-09-11T07:20:11.598Z,81.51
2018-09-11T07:21:11.242Z,81.31
2018-09-11T07:22:18.842Z,81.31
2018-09-11T07:23:11.258Z,81.51
2018-09-11T07:24:11.204Z,82.02
2018-09-11T07:25:11.259Z,81.62
2018-09-11T07:26:11.207Z,81.21
2018-09-11T07:27:11.183Z,81.51
2018-09-11T07:28:11.870Z,82.22
2018-09-11T07:29:11.144Z,81.62
2018-09-11T07:30:11.137Z,82.12
2018-09-11T07:31:11.124Z,82.22
2018-09-11T07:32:11.851Z,81.71
2018-09-11T07:33:11.409Z,82.02
2018-09-11T07:34:11.093Z,81.21
2018-09-11T07:35:11.087Z,81.98
2018-09-11T07:36:11.070Z,81.98
2018-09-11T07:37:11.337Z,81.48
2018-09-11T07:38:11.950Z,81.98
2018-09-11T07:39:11.420Z,81.88
2018-09-11T07:40:11.028Z,81.88
2018-09-11T07:41:11.873Z,81.98
2018-09-11T07:42:11.001Z,81.98
2018-09-11T07:43:10.989Z,81.37
2018-09-11T07:44:11.063Z,81.62
2018-09-11T07:45:11.852Z,81.57
2018-09-11T07:46:10.958Z,81.27
2018-09-11T07:47:10.944Z,81.48
2018-09-11T07:48:11.853Z,81.68
2018-09-11T07:49:10.948Z,81.27
2018-09-11T07:50:10.963Z,81.98
2018-09-11T07:51:18.900Z,80.77
2018-09-11T07:52:10.925Z,80.53
2018-09-11T07:53:11.425Z,81.20
2018-09-11T07:54:10.901Z,80.32
2018-09-11T07:55:11.029Z,80.43
2018-09-11T07:56:10.976Z,80.43
2018-09-11T07:57:11.180Z,80.39
2018-09-11T07:58:10.867Z,79.99
2018-09-11T07:59:10.794Z,80.02
2018-09-11T08:00:10.833Z,80.32
2018-09-11T08:01:10.808Z,79.52
2018-09-11T08:02:10.750Z,80.29
2018-09-11T08:03:10.839Z,79.58
2018-09-11T08:04:10.775Z,79.79
2018-09-11T08:05:10.770Z,80.08
2018-09-11T08:06:10.708Z,80.19
2018-09-11T08:07:10.697Z,80.39
2018-09-11T08:08:10.681Z,80.29
2018-09-11T08:09:10.784Z,79.94
2018-09-11T08:10:10.679Z,78.88
2018-09-11T08:11:18.759Z,79.08
2018-09-11T08:12:10.662Z,79.64
2018-09-11T08:13:10.690Z,78.94
2018-09-11T08:14:10.769Z,78.70
2018-09-11T08:15:10.976Z,78.59
2018-09-11T08:16:10.658Z,78.09
2018-09-11T08:17:10.583Z,78.33
2018-09-11T08:18:10.571Z,78.19
2018-09-11T08:19:10.615Z,78.39
2018-09-11T08:20:10.568Z,77.99
2018-09-11T08:21:10.541Z,78.09
2018-09-11T08:22:10.588Z,77.99
2018-09-11T08:23:10.517Z,77.59
2018-09-11T08:24:10.520Z,76.98
2018-09-11T08:25:10.492Z,77.08
2018-09-11T08:26:10.485Z,77.79
2018-09-11T08:27:18.467Z,77.99
2018-09-11T08:28:10.642Z,77.19
2018-09-11T08:29:10.683Z,77.59
2018-09-11T08:30:10.454Z,77.79
2018-09-11T08:31:10.636Z,76.78
2018-09-11T08:32:10.440Z,77.59
2018-09-11T08:33:10.445Z,77.59
2018-09-11T08:34:10.428Z,77.45
2018-09-11T08:35:10.390Z,76.95
2018-09-11T08:36:10.660Z,77.15
2018-09-11T08:37:10.461Z,77.86
2018-09-11T08:38:10.457Z,77.15
2018-09-11T08:39:10.339Z,76.34
2018-09-11T08:40:10.386Z,76.40
2018-09-11T08:41:10.352Z,76.24
2018-09-11T08:42:10.410Z,76.20
2018-09-11T08:43:10.385Z,76.64
2018-09-11T08:44:10.324Z,76.61
2018-09-11T08:45:10.290Z,76.40
2018-09-11T08:46:10.307Z,77.11
2018-09-11T08:47:19.694Z,76.10
2018-09-11T08:48:10.280Z,76.20
2018-09-11T08:49:10.231Z,76.34
2018-09-11T08:50:10.236Z,76.44
2018-09-11T08:51:10.278Z,76.04
2018-09-11T08:52:10.359Z,76.34
2018-09-11T08:53:10.247Z,76.10
2018-09-11T08:54:10.519Z,75.10
2018-09-11T08:55:10.165Z,75.80
2018-09-11T08:56:10.230Z,75.46
2018-09-11T08:57:10.191Z,75.67
2018-09-11T08:58:10.159Z,74.76
2018-09-11T08:59:10.122Z,74.55
2018-09-11T09:00:10.136Z,74.46
2018-09-11T09:01:10.117Z,74.73
2018-09-11T09:02:10.085Z,74.73
2018-09-11T09:03:10.169Z,74.55
2018-09-11T09:04:10.067Z,73.95
2018-09-11T09:05:10.052Z,73.61
2018-09-11T09:06:10.110Z,73.72
2018-09-11T09:07:10.032Z,73.28
2018-09-11T09:08:10.025Z,72.97
2018-09-11T09:09:10.176Z,72.67
2018-09-11T09:10:10.218Z,72.57
2018-09-11T09:11:09.989Z,72.47
2018-09-11T09:12:09.979Z,72.44
2018-09-11T09:13:09.966Z,72.03
2018-09-11T09:14:10.066Z,72.24
2018-09-11T09:15:10.004Z,72.24
2018-09-11T09:16:18.052Z,72.54
2018-09-11T09:17:09.959Z,72.94
2018-09-11T09:18:09.984Z,72.84
2018-09-11T09:19:09.938Z,72.74
2018-09-11T09:20:10.115Z,73.04
2018-09-11T09:21:10.018Z,72.00
2018-09-11T09:22:10.134Z,72.03
2018-09-11T09:23:09.899Z,71.30
2018-09-11T09:24:09.844Z,72.20
2018-09-11T09:25:09.870Z,72.24
2018-09-11T09:26:21.273Z,72.03
2018-09-11T09:27:09.859Z,72.14
2018-09-11T09:28:09.804Z,72.14
2018-09-11T09:29:09.850Z,71.73
2018-09-11T09:30:09.860Z,71.94
2018-09-11T09:31:09.806Z,72.41
2018-09-11T09:32:09.869Z,71.03
2018-09-11T09:33:09.766Z,71.73
2018-09-11T09:34:09.734Z,72.41
2018-09-11T09:35:09.743Z,71.30
2018-09-11T09:36:09.712Z,71.60
2018-09-11T09:37:09.701Z,71.47
2018-09-11T09:38:09.749Z,71.06
2018-09-11T09:39:09.679Z,70.46
2018-09-11T09:40:09.673Z,70.26
2018-09-11T09:41:09.698Z,70.16
2018-09-11T09:42:09.649Z,70.29
2018-09-11T09:43:09.751Z,71.20
2018-09-11T09:44:09.648Z,70.89
2018-09-11T09:45:17.526Z,71.20
2018-09-11T09:46:09.692Z,71.70
2018-09-11T09:47:09.591Z,70.50
2018-09-11T09:48:09.682Z,70.46
2018-09-11T09:49:09.682Z,70.19
2018-09-11T09:50:09.689Z,71.00
2018-09-11T09:51:09.889Z,71.97
2018-09-11T09:52:09.582Z,70.36
2018-09-11T09:53:09.545Z,69.82
2018-09-11T09:54:09.545Z,70.03
2018-09-11T09:55:09.574Z,69.49
2018-09-11T09:56:09.520Z,68.99
2018-09-11T09:57:09.496Z,68.29
2018-09-11T09:58:09.476Z,68.12
2018-09-11T09:59:09.522Z,68.49
2018-09-11T10:00:09.497Z,69.69
2018-09-11T10:01:09.441Z,67.75
2018-09-11T10:02:09.432Z,67.25
2018-09-11T10:03:09.417Z,67.78
2018-09-11T10:04:09.457Z,67.22
2018-09-11T10:05:09.417Z,67.42
2018-09-11T10:06:09.386Z,65.98
2018-09-11T10:07:09.376Z,66.08
2018-09-11T10:08:09.365Z,66.15
2018-09-11T10:09:09.351Z,64.54
2018-09-11T10:10:09.451Z,65.35
2018-09-11T10:11:09.342Z,64.95
2018-09-11T10:12:09.318Z,66.18
2018-09-11T10:13:18.626Z,66.08
2018-09-11T10:14:09.334Z,65.41
2018-09-11T10:15:09.309Z,66.18
2018-09-11T10:16:09.352Z,64.84
2018-09-11T10:17:09.329Z,64.65
2018-09-11T10:18:09.259Z,65.22
2018-09-11T10:19:09.295Z,63.89
2018-09-11T10:20:09.275Z,64.51
2018-09-11T10:21:09.339Z,64.89
2018-09-11T10:22:09.313Z,64.18
2018-09-11T10:23:09.543Z,64.69
2018-09-11T10:24:09.241Z,63.08
2018-09-11T10:25:09.178Z,64.01
2018-09-11T10:26:09.206Z,63.92
2018-09-11T10:27:09.224Z,64.31
2018-09-11T10:28:09.202Z,64.34
2018-09-11T10:29:09.135Z,64.04
2018-09-11T10:30:09.244Z,64.42
2018-09-11T10:31:09.113Z,63.89
2018-09-11T10:32:09.098Z,63.48
2018-09-11T10:33:18.673Z,63.42
2018-09-11T10:34:09.107Z,63.98
2018-09-11T10:35:09.192Z,64.12
2018-09-11T10:36:09.180Z,63.39
2018-09-11T10:37:09.202Z,63.51
2018-09-11T10:38:09.062Z,63.78
2018-09-11T10:39:09.030Z,64.12
2018-09-11T10:40:09.053Z,63.58
2018-09-11T10:41:09.040Z,63.48
2018-09-11T10:42:08.988Z,63.58
2018-09-11T10:43:17.090Z,62.38
2018-09-11T10:44:09.051Z,62.95
2018-09-11T10:45:08.957Z,62.05
2018-09-11T10:46:09.012Z,62.15
2018-09-11T10:47:08.968Z,61.72
2018-09-11T10:48:08.929Z,61.72
2018-09-11T10:49:09.112Z,60.72
2018-09-11T10:50:08.903Z,61.72
2018-09-11T10:51:08.890Z,61.52
2018-09-11T10:52:18.191Z,62.29
2018-09-11T10:53:08.923Z,62.16
2018-09-11T10:54:08.973Z,60.46
2018-09-11T10:55:08.938Z,60.36
2018-09-11T10:56:09.190Z,60.57
2018-09-11T10:57:08.884Z,61.43
2018-09-11T10:58:08.862Z,60.44
2018-09-11T10:59:08.806Z,61.10
2018-09-11T11:00:08.790Z,60.50
2018-09-11T11:01:08.819Z,59.61
2018-09-11T11:02:08.768Z,60.11
2018-09-11T11:03:08.882Z,59.51
2018-09-11T11:04:08.758Z,59.61
2018-09-11T11:05:08.800Z,59.21
2018-09-11T11:06:08.723Z,60.21
2018-09-11T11:07:08.708Z,59.81
2018-09-11T11:08:08.787Z,60.28
2018-09-11T11:09:08.708Z,60.45
2018-09-11T11:10:08.708Z,58.06
2018-09-11T11:11:08.665Z,57.18
2018-09-11T11:12:17.049Z,57.88
2018-09-11T11:13:08.775Z,58.51
2018-09-11T11:14:08.665Z,58.21
2018-09-11T11:15:08.713Z,58.91
2018-09-11T11:16:08.640Z,59.91
2018-09-11T11:17:08.664Z,58.48
2018-09-11T11:18:08.619Z,58.98
2018-09-11T11:19:08.610Z,59.18
2018-09-11T11:20:08.722Z,58.28
2018-09-11T11:21:08.642Z,56.79
2018-09-11T11:22:16.778Z,57.28
2018-09-11T11:23:08.572Z,56.38
2018-09-11T11:24:08.575Z,56.88
2018-09-11T11:25:08.526Z,57.39
2018-09-11T11:26:08.528Z,57.39
2018-09-11T11:27:08.566Z,58.28
2018-09-11T11:28:08.539Z,57.28
2018-09-11T11:29:08.519Z,57.98
2018-09-11T11:30:08.482Z,57.58
2018-09-11T11:31:08.614Z,56.29
2018-09-11T11:32:08.492Z,57.28
2018-09-11T11:33:08.718Z,56.38
2018-09-11T11:34:08.409Z,58.48
2018-09-11T11:35:08.437Z,57.09
2018-09-11T11:36:08.474Z,57.18
2018-09-11T11:37:08.500Z,56.66
2018-09-11T11:38:08.456Z,57.09
2018-09-11T11:39:08.355Z,57.26
2018-09-11T11:40:08.421Z,56.16
2018-09-11T11:41:16.492Z,56.66
2018-09-11T11:42:08.394Z,57.46
2018-09-11T11:43:08.323Z,56.33
2018-09-11T11:44:08.352Z,55.96
2018-09-11T11:45:08.374Z,56.36
2018-09-11T11:46:08.610Z,55.73
2018-09-11T11:47:08.308Z,56.23
2018-09-11T11:48:08.279Z,56.23
2018-09-11T11:49:08.284Z,56.70
2018-09-11T11:50:08.289Z,55.68
2018-09-11T11:51:08.224Z,55.08
2018-09-11T11:52:08.294Z,54.49
2018-09-11T11:53:08.202Z,54.98
2018-09-11T11:54:08.190Z,54.68
2018-09-11T11:55:08.272Z,54.98
2018-09-11T11:56:08.189Z,54.98
2018-09-11T11:57:08.199Z,53.49
2018-09-11T11:58:08.149Z,54.28
2018-09-11T11:59:08.174Z,55.28
2018-09-11T12:00:08.122Z,54.08
2018-09-11T12:01:17.214Z,54.88
2018-09-11T12:02:08.285Z,55.18
2018-09-11T12:03:08.142Z,54.79
2018-09-11T12:04:08.149Z,54.68
2018-09-11T12:05:08.075Z,53.59
2018-09-11T12:06:08.088Z,54.79
2018-09-11T12:07:08.074Z,53.89
2018-09-11T12:08:08.043Z,54.31
2018-09-11T12:09:08.051Z,54.08
2018-09-11T12:10:08.163Z,53.99
2018-09-11T12:11:08.087Z,54.68
2018-09-11T12:12:08.144Z,52.79
2018-09-11T12:13:08.035Z,54.08
2018-09-11T12:14:07.975Z,54.19
2018-09-11T12:15:07.999Z,54.75
2018-09-11T12:16:07.956Z,54.24
2018-09-11T12:17:08.012Z,53.46
2018-09-11T12:18:07.969Z,52.86
2018-09-11T12:19:07.933Z,52.67
2018-09-11T12:20:07.912Z,52.84
2018-09-11T12:21:07.897Z,54.96
2018-09-11T12:22:07.884Z,52.84
2018-09-11T12:23:07.919Z,53.04
2018-09-11T12:24:07.898Z,53.14
2018-09-11T12:25:07.871Z,53.24
2018-09-11T12:26:07.892Z,53.24
2018-09-11T12:27:07.845Z,52.74
2018-09-11T12:28:07.822Z,52.94
2018-09-11T12:29:07.809Z,52.94
2018-09-11T12:30:07.828Z,52.94
2018-09-11T12:32:23.296Z,52.34
2018-09-11T12:33:23.120Z,52.97
2018-09-11T12:34:23.343Z,53.66
2018-09-11T12:35:23.140Z,54.83
2018-09-11T12:36:23.369Z,52.84
2018-09-11T12:37:23.166Z,52.91
2018-09-11T12:38:23.259Z,52.94
2018-09-11T12:39:23.113Z,53.11
2018-09-11T12:40:23.056Z,51.79
2018-09-11T12:41:23.074Z,51.70
2018-09-11T12:42:23.048Z,53.09
2018-09-11T12:43:23.036Z,52.29
2018-09-11T12:44:23.060Z,52.17
2018-09-11T12:45:22.987Z,51.10
2018-09-11T12:46:23.517Z,50.40
2018-09-11T12:47:23.206Z,51.00
2018-09-11T12:48:23.306Z,51.79
2018-09-11T12:49:23.028Z,50.23
2018-09-11T12:50:22.952Z,53.02
2018-09-11T12:51:31.120Z,52.79
2018-09-11T12:52:23.015Z,51.77
2018-09-11T12:53:22.901Z,51.17